createdAt,value
2023-01-26T00:00:22.488Z,1840.00
2023-01-26T00:01:22.448Z,1843.00
2023-01-26T00:02:22.438Z,1843.00
2023-01-26T00:03:22.430Z,1842.00
2023-01-26T00:04:22.382Z,1845.00
2023-01-26T00:05:22.347Z,1838.00
2023-01-26T00:06:22.321Z,1837.00
2023-01-26T00:07:22.301Z,1840.00
2023-01-26T00:08:22.274Z,1827.00
2023-01-26T00:09:22.227Z,1836.00
2023-01-26T00:10:22.193Z,1833.00
2023-01-26T00:11:22.185Z,1840.00
2023-01-26T00:12:22.138Z,1816.00
2023-01-26T00:13:22.122Z,1815.00
2023-01-26T00:14:22.106Z,1816.00
2023-01-26T00:15:22.061Z,1824.00
2023-01-26T00:16:22.143Z,1820.00
2023-01-26T00:17:21.997Z,1813.00
2023-01-26T00:18:21.970Z,1813.00
2023-01-26T00:19:21.963Z,1821.00
2023-01-26T00:20:21.922Z,1803.00
2023-01-26T00:21:21.897Z,1815.00
2023-01-26T00:22:21.861Z,1811.00
2023-01-26T00:23:21.834Z,1810.00
2023-01-26T00:24:21.866Z,1798.00
2023-01-26T00:25:21.776Z,1807.00
2023-01-26T00:26:21.747Z,1812.00
2023-01-26T00:27:21.723Z,1807.00
2023-01-26T00:28:21.703Z,1798.00
2023-01-26T00:29:21.664Z,1806.00
2023-01-26T00:30:21.680Z,1799.00
2023-01-26T00:31:21.651Z,1806.00
2023-01-26T00:32:21.550Z,1807.00
2023-01-26T00:33:21.531Z,1808.00
2023-01-26T00:34:21.477Z,1809.00
2023-01-26T00:35:21.468Z,1789.00
2023-01-26T00:36:21.421Z,1797.00
2023-01-26T00:37:21.398Z,1792.00
2023-01-26T00:38:21.344Z,1800.00
2023-01-26T00:39:21.316Z,1801.00
2023-01-26T00:40:21.277Z,1794.00
2023-01-26T00:41:21.249Z,1790.00
2023-01-26T00:42:21.222Z,1790.00
2023-01-26T00:43:21.193Z,1791.00
2023-01-26T00:44:21.155Z,1778.00
2023-01-26T00:45:21.117Z,1788.00
2023-01-26T00:46:21.102Z,1787.00
2023-01-26T00:47:21.045Z,1782.00
2023-01-26T00:48:23.535Z,1792.00
2023-01-26T00:49:20.992Z,1791.00
2023-01-26T00:50:20.954Z,1786.00
2023-01-26T00:51:20.908Z,1791.00
2023-01-26T00:52:20.888Z,1776.00
2023-01-26T00:53:20.852Z,1783.00
2023-01-26T00:54:20.817Z,1767.00
2023-01-26T00:55:20.791Z,1776.00
2023-01-26T00:56:20.756Z,1767.00
2023-01-26T00:57:20.724Z,1784.00
2023-01-26T00:58:20.707Z,1785.00
2023-01-26T00:59:20.682Z,1785.00
2023-01-26T01:00:20.632Z,1784.00
2023-01-26T01:01:20.594Z,1783.00
2023-01-26T01:02:20.577Z,1786.00
2023-01-26T01:03:21.294Z,1768.00
2023-01-26T01:04:20.575Z,1778.00
2023-01-26T01:05:20.518Z,1772.00
2023-01-26T01:06:20.500Z,1771.00
2023-01-26T01:07:20.427Z,1782.00
2023-01-26T01:08:20.404Z,1759.00
2023-01-26T01:09:20.389Z,1760.00
2023-01-26T01:10:20.336Z,1761.00
2023-01-26T01:11:20.314Z,1763.00
2023-01-26T01:12:20.282Z,1750.00
2023-01-26T01:13:20.264Z,1758.00
2023-01-26T01:14:20.221Z,1748.00
2023-01-26T01:15:20.187Z,1750.00
2023-01-26T01:16:20.204Z,1755.00
2023-01-26T01:17:20.148Z,1750.00
2023-01-26T01:18:20.085Z,1754.00
2023-01-26T01:19:20.064Z,1746.00
2023-01-26T01:20:20.060Z,1739.00
2023-01-26T01:21:20.007Z,1741.00
2023-01-26T01:22:19.956Z,1752.00
2023-01-26T01:23:19.969Z,1746.00
2023-01-26T01:24:19.949Z,1742.00
2023-01-26T01:25:19.872Z,1740.00
2023-01-26T01:26:19.878Z,1739.00
2023-01-26T01:27:19.821Z,1742.00
2023-01-26T01:28:19.809Z,1749.00
2023-01-26T01:29:19.761Z,1744.00
2023-01-26T01:30:19.732Z,1740.00
2023-01-26T01:31:19.778Z,1739.00
2023-01-26T01:32:19.685Z,1733.00
2023-01-26T01:33:19.649Z,1722.00
2023-01-26T01:34:19.614Z,1720.00
2023-01-26T01:35:19.582Z,1731.00
2023-01-26T01:36:19.563Z,1728.00
2023-01-26T01:37:19.503Z,1725.00
2023-01-26T01:38:19.477Z,1731.00
2023-01-26T01:39:19.458Z,1726.00
2023-01-26T01:40:19.421Z,1720.00
2023-01-26T01:41:19.408Z,1722.00
2023-01-26T01:42:19.370Z,1710.00
2023-01-26T01:43:19.335Z,1713.00
2023-01-26T01:44:19.322Z,1715.00
2023-01-26T01:45:19.270Z,1710.00
2023-01-26T01:46:19.266Z,1710.00
2023-01-26T01:47:19.230Z,1722.00
2023-01-26T01:48:19.209Z,1717.00
2023-01-26T01:49:19.173Z,1697.00
2023-01-26T01:50:19.156Z,1701.00
2023-01-26T01:51:19.113Z,1704.00
2023-01-26T01:52:19.079Z,1701.00
2023-01-26T01:53:19.084Z,1707.00
2023-01-26T01:54:19.029Z,1698.00
2023-01-26T01:55:19.025Z,1703.00
2023-01-26T01:56:19.018Z,1700.00
2023-01-26T01:57:19.016Z,1695.00
2023-01-26T01:58:18.916Z,1688.00
2023-01-26T01:59:18.890Z,1690.00
2023-01-26T02:00:18.866Z,1691.00
2023-01-26T02:01:18.843Z,1697.00
2023-01-26T02:02:18.965Z,1693.00
2023-01-26T02:03:18.795Z,1700.00
2023-01-26T02:04:18.745Z,1697.00
2023-01-26T02:05:18.723Z,1694.00
2023-01-26T02:06:18.683Z,1692.00
2023-01-26T02:07:18.656Z,1696.00
2023-01-26T02:08:18.616Z,1688.00
2023-01-26T02:09:18.582Z,1682.00
2023-01-26T02:10:18.554Z,1688.00
2023-01-26T02:11:18.519Z,1692.00
2023-01-26T02:12:18.489Z,1670.00
2023-01-26T02:13:18.471Z,1688.00
2023-01-26T02:14:18.433Z,1672.00
2023-01-26T02:15:18.408Z,1667.00
2023-01-26T02:16:18.386Z,1672.00
2023-01-26T02:17:18.350Z,1667.00
2023-01-26T02:18:18.315Z,1678.00
2023-01-26T02:19:18.294Z,1670.00
2023-01-26T02:20:18.260Z,1671.00
2023-01-26T02:21:18.219Z,1682.00
2023-01-26T02:22:18.182Z,1668.00
2023-01-26T02:23:18.164Z,1662.00
2023-01-26T02:24:18.167Z,1668.00
2023-01-26T02:25:18.096Z,1668.00
2023-01-26T02:26:18.065Z,1674.00
2023-01-26T02:27:18.040Z,1665.00
2023-01-26T02:28:18.003Z,1652.00
2023-01-26T02:29:17.977Z,1662.00
2023-01-26T02:30:17.952Z,1655.00
2023-01-26T02:31:18.034Z,1655.00
2023-01-26T02:32:17.883Z,1647.00
2023-01-26T02:33:17.867Z,1648.00
2023-01-26T02:34:17.839Z,1652.00
2023-01-26T02:35:17.837Z,1652.00
2023-01-26T02:36:17.786Z,1658.00
2023-01-26T02:37:17.761Z,1654.00
2023-01-26T02:38:17.723Z,1659.00
2023-01-26T02:39:17.700Z,1662.00
2023-01-26T02:40:17.671Z,1654.00
2023-01-26T02:41:17.649Z,1648.00
2023-01-26T02:42:17.605Z,1666.00
2023-01-26T02:43:17.580Z,1634.00
2023-01-26T02:44:17.549Z,1650.00
2023-01-26T02:45:17.529Z,1650.00
2023-01-26T02:46:17.540Z,1635.00
2023-01-26T02:47:17.471Z,1634.00
2023-01-26T02:48:17.463Z,1641.00
2023-01-26T02:49:17.418Z,1644.00
2023-01-26T02:50:17.411Z,1624.00
2023-01-26T02:51:17.389Z,1600.00
2023-01-26T02:52:17.341Z,1540.00
2023-01-26T02:53:17.328Z,1451.00
2023-01-26T02:54:17.312Z,1459.00
2023-01-26T02:55:17.297Z,1485.00
2023-01-26T02:56:17.264Z,1479.00
2023-01-26T02:57:17.227Z,1454.00
2023-01-26T02:58:17.224Z,1292.00
2023-01-26T02:59:17.195Z,1216.00
2023-01-26T03:00:17.172Z,1201.00
2023-01-26T03:01:17.139Z,1204.00
2023-01-26T03:02:17.168Z,1196.00
2023-01-26T03:03:17.088Z,1111.00
2023-01-26T03:04:17.071Z,1082.00
2023-01-26T03:05:17.029Z,1031.00
2023-01-26T03:06:17.014Z,1000.00
2023-01-26T03:07:16.970Z,976.00
2023-01-26T03:08:16.940Z,1026.00
2023-01-26T03:09:16.904Z,1035.00
2023-01-26T03:10:16.891Z,956.00
2023-01-26T03:11:16.868Z,898.00
2023-01-26T03:12:16.836Z,817.00
2023-01-26T03:13:16.790Z,754.00
2023-01-26T03:14:16.779Z,683.00
2023-01-26T03:15:16.779Z,720.00
2023-01-26T03:16:16.789Z,729.00
2023-01-26T03:17:16.698Z,724.00
2023-01-26T03:18:16.672Z,724.00
2023-01-26T03:19:16.635Z,675.00
2023-01-26T03:20:16.616Z,661.00
2023-01-26T03:21:16.626Z,650.00
2023-01-26T03:22:16.562Z,636.00
2023-01-26T03:23:16.539Z,658.00
2023-01-26T03:24:17.439Z,685.00
2023-01-26T03:25:16.493Z,704.00
2023-01-26T03:26:16.479Z,716.00
2023-01-26T03:27:16.457Z,662.00
2023-01-26T03:28:16.431Z,635.00
2023-01-26T03:29:16.392Z,629.00
2023-01-26T03:30:16.440Z,602.00
2023-01-26T03:31:16.374Z,602.00
2023-01-26T03:32:16.318Z,606.00
2023-01-26T03:33:16.285Z,611.00
2023-01-26T03:34:16.260Z,615.00
2023-01-26T03:35:16.219Z,624.00
2023-01-26T03:36:16.202Z,596.00
2023-01-26T03:37:16.173Z,564.00
2023-01-26T03:38:16.123Z,526.00
2023-01-26T03:39:16.101Z,547.00
2023-01-26T03:40:16.108Z,536.00
2023-01-26T03:41:16.070Z,539.00
2023-01-26T03:42:16.013Z,541.00
2023-01-26T03:43:15.992Z,543.00
2023-01-26T03:44:15.968Z,535.00
2023-01-26T03:45:15.936Z,527.00
2023-01-26T03:46:15.900Z,541.00
2023-01-26T03:47:15.882Z,544.00
2023-01-26T03:48:15.846Z,549.00
2023-01-26T03:49:15.808Z,540.00
2023-01-26T03:50:15.780Z,553.00
2023-01-26T03:51:15.784Z,551.00
2023-01-26T03:52:15.726Z,543.00
2023-01-26T03:53:15.693Z,558.00
2023-01-26T03:54:15.701Z,551.00
2023-01-26T03:55:15.634Z,544.00
2023-01-26T03:56:15.619Z,546.00
2023-01-26T03:57:15.587Z,532.00
2023-01-26T03:58:15.552Z,530.00
2023-01-26T03:59:15.618Z,526.00
2023-01-26T04:00:15.500Z,535.00
2023-01-26T04:01:15.502Z,536.00
2023-01-26T04:02:15.509Z,544.00
2023-01-26T04:03:15.435Z,543.00
2023-01-26T04:04:15.432Z,538.00
2023-01-26T04:05:15.369Z,536.00
2023-01-26T04:06:16.792Z,519.00
2023-01-26T04:07:15.342Z,517.00
2023-01-26T04:08:15.297Z,505.00
2023-01-26T04:09:15.269Z,515.00
2023-01-26T04:10:15.290Z,510.00
2023-01-26T04:11:15.233Z,500.00
2023-01-26T04:12:15.201Z,503.00
2023-01-26T04:13:15.170Z,515.00
2023-01-26T04:14:15.138Z,516.00
2023-01-26T04:15:15.114Z,508.00
2023-01-26T04:16:15.149Z,511.00
2023-01-26T04:17:15.064Z,509.00
2023-01-26T04:18:15.042Z,511.00
2023-01-26T04:19:15.007Z,505.00
2023-01-26T04:20:14.982Z,509.00
2023-01-26T04:21:14.965Z,515.00
2023-01-26T04:22:14.935Z,523.00
2023-01-26T04:23:14.910Z,520.00
2023-01-26T04:24:16.959Z,511.00
2023-01-26T04:25:14.874Z,510.00
2023-01-26T04:26:14.839Z,506.00
2023-01-26T04:27:14.863Z,511.00
2023-01-26T04:28:14.795Z,516.00
2023-01-26T04:29:14.760Z,529.00
2023-01-26T04:30:14.749Z,533.00
2023-01-26T04:31:14.770Z,538.00
2023-01-26T04:32:14.680Z,537.00
2023-01-26T04:33:14.663Z,536.00
2023-01-26T04:34:14.629Z,542.00
2023-01-26T04:35:14.600Z,539.00
2023-01-26T04:36:14.565Z,536.00
2023-01-26T04:37:14.550Z,545.00
2023-01-26T04:38:14.529Z,552.00
2023-01-26T04:39:14.500Z,541.00
2023-01-26T04:40:14.776Z,548.00
2023-01-26T04:41:14.471Z,559.00
2023-01-26T04:42:14.434Z,556.00
2023-01-26T04:43:14.417Z,552.00
2023-01-26T04:44:14.376Z,565.00
2023-01-26T04:45:14.353Z,568.00
2023-01-26T04:46:14.344Z,563.00
2023-01-26T04:47:14.303Z,567.00
2023-01-26T04:48:14.287Z,579.00
2023-01-26T04:49:14.279Z,587.00
2023-01-26T04:50:14.593Z,598.00
2023-01-26T04:51:14.219Z,606.00
2023-01-26T04:52:14.195Z,606.00
2023-01-26T04:53:14.195Z,608.00
2023-01-26T04:54:14.152Z,614.00
2023-01-26T04:55:14.124Z,621.00
2023-01-26T04:56:14.082Z,634.00
2023-01-26T04:57:14.053Z,633.00
2023-01-26T04:58:14.019Z,626.00
2023-01-26T04:59:13.995Z,624.00
2023-01-26T05:00:14.141Z,623.00
2023-01-26T05:01:13.968Z,624.00
2023-01-26T05:02:13.951Z,627.00
2023-01-26T05:03:13.930Z,632.00
2023-01-26T05:04:13.927Z,630.00
2023-01-26T05:05:13.860Z,632.00
2023-01-26T05:06:13.859Z,625.00
2023-01-26T05:07:13.817Z,618.00
2023-01-26T05:08:13.825Z,616.00
2023-01-26T05:09:13.771Z,621.00
2023-01-26T05:10:15.764Z,630.00
2023-01-26T05:11:13.731Z,631.00
2023-01-26T05:12:13.705Z,631.00
2023-01-26T05:13:13.730Z,633.00
2023-01-26T05:14:13.675Z,628.00
2023-01-26T05:15:13.635Z,611.00
2023-01-26T05:16:13.661Z,608.00
2023-01-26T05:17:13.599Z,597.00
2023-01-26T05:18:13.587Z,592.00
2023-01-26T05:19:13.573Z,597.00
2023-01-26T05:20:13.820Z,601.00
2023-01-26T05:21:13.529Z,601.00
2023-01-26T05:22:13.511Z,601.00
2023-01-26T05:23:13.481Z,599.00
2023-01-26T05:24:13.522Z,596.00
2023-01-26T05:25:13.441Z,589.00
2023-01-26T05:26:13.414Z,600.00
2023-01-26T05:27:13.388Z,588.00
2023-01-26T05:28:13.365Z,590.00
2023-01-26T05:29:13.363Z,597.00
2023-01-26T05:30:14.760Z,604.00
2023-01-26T05:31:13.287Z,614.00
2023-01-26T05:32:13.271Z,618.00
2023-01-26T05:33:13.253Z,616.00
2023-01-26T05:34:13.230Z,613.00
2023-01-26T05:35:13.194Z,613.00
2023-01-26T05:36:13.167Z,621.00
2023-01-26T05:37:15.001Z,620.00
2023-01-26T05:38:13.129Z,611.00
2023-01-26T05:39:13.094Z,618.00
2023-01-26T05:40:13.359Z,624.00
2023-01-26T05:41:13.054Z,626.00
2023-01-26T05:42:13.038Z,628.00
2023-01-26T05:43:13.023Z,624.00
2023-01-26T05:44:12.989Z,613.00
2023-01-26T05:45:12.968Z,602.00
2023-01-26T05:46:13.010Z,597.00
2023-01-26T05:47:12.915Z,591.00
2023-01-26T05:48:12.887Z,581.00
2023-01-26T05:49:12.873Z,581.00
2023-01-26T05:50:13.148Z,583.00
2023-01-26T05:51:12.805Z,587.00
2023-01-26T05:52:12.789Z,594.00
2023-01-26T05:53:12.778Z,608.00
2023-01-26T05:54:12.755Z,616.00
2023-01-26T05:55:12.712Z,613.00
2023-01-26T05:56:12.692Z,631.00
2023-01-26T05:57:12.694Z,629.00
2023-01-26T05:58:12.644Z,632.00
2023-01-26T05:59:12.615Z,648.00
2023-01-26T06:00:12.908Z,650.00
2023-01-26T06:01:12.561Z,654.00
2023-01-26T06:02:12.570Z,658.00
2023-01-26T06:03:12.527Z,656.00
2023-01-26T06:04:12.513Z,663.00
2023-01-26T06:05:12.463Z,680.00
2023-01-26T06:06:12.444Z,687.00
2023-01-26T06:07:12.424Z,687.00
2023-01-26T06:08:12.404Z,742.00
2023-01-26T06:09:12.378Z,784.00
2023-01-26T06:10:12.723Z,805.00
2023-01-26T06:11:12.338Z,811.00
2023-01-26T06:12:12.304Z,806.00
2023-01-26T06:13:12.295Z,787.00
2023-01-26T06:14:12.261Z,819.00
2023-01-26T06:15:12.237Z,845.00
2023-01-26T06:16:12.206Z,858.00
2023-01-26T06:17:12.193Z,854.00
2023-01-26T06:18:12.152Z,871.00
2023-01-26T06:19:12.156Z,880.00
2023-01-26T06:20:12.366Z,911.00
2023-01-26T06:21:12.076Z,921.00
2023-01-26T06:22:12.063Z,922.00
2023-01-26T06:23:12.047Z,925.00
2023-01-26T06:24:12.055Z,928.00
2023-01-26T06:25:11.978Z,943.00
2023-01-26T06:26:11.955Z,975.00
2023-01-26T06:27:11.923Z,976.00
2023-01-26T06:28:11.896Z,980.00
2023-01-26T06:29:11.884Z,976.00
2023-01-26T06:30:12.166Z,982.00
2023-01-26T06:31:11.946Z,985.00
2023-01-26T06:32:11.804Z,1011.00
2023-01-26T06:33:11.768Z,1019.00
2023-01-26T06:34:11.748Z,1023.00
2023-01-26T06:35:11.719Z,1070.00
2023-01-26T06:36:11.694Z,1094.00
2023-01-26T06:37:11.688Z,1118.00
2023-01-26T06:38:11.640Z,1148.00
2023-01-26T06:39:11.684Z,1193.00
2023-01-26T06:40:12.018Z,1197.00
2023-01-26T06:41:11.542Z,1215.00
2023-01-26T06:42:11.509Z,1252.00
2023-01-26T06:43:11.478Z,1290.00
2023-01-26T06:44:11.492Z,1341.00
2023-01-26T06:45:11.419Z,1351.00
2023-01-26T06:46:11.483Z,1362.00
2023-01-26T06:47:11.343Z,1372.00
2023-01-26T06:48:11.319Z,1381.00
2023-01-26T06:49:11.285Z,1410.00
2023-01-26T06:50:11.490Z,1436.00
2023-01-26T06:51:11.240Z,1486.00
2023-01-26T06:52:11.205Z,1478.00
2023-01-26T06:53:11.171Z,1488.00
2023-01-26T06:54:11.140Z,1545.00
2023-01-26T06:55:11.110Z,1541.00
2023-01-26T06:56:11.069Z,1564.00
2023-01-26T06:57:11.051Z,1610.00
2023-01-26T06:58:11.110Z,1638.00
2023-01-26T06:59:10.982Z,1672.00
2023-01-26T07:00:11.224Z,1690.00
2023-01-26T07:01:11.019Z,1716.00
2023-01-26T07:02:11.110Z,1738.00
2023-01-26T07:03:10.936Z,1748.00
2023-01-26T07:04:11.035Z,1764.00
2023-01-26T07:05:12.015Z,1753.00
2023-01-26T07:06:10.717Z,1764.00
2023-01-26T07:07:10.684Z,1790.00
2023-01-26T07:08:10.663Z,1799.00
2023-01-26T07:09:10.633Z,1797.00
2023-01-26T07:10:11.101Z,1789.00
2023-01-26T07:11:10.540Z,1761.00
2023-01-26T07:12:10.530Z,1764.00
2023-01-26T07:13:10.491Z,1771.00
2023-01-26T07:14:10.456Z,1778.00
2023-01-26T07:15:10.439Z,1767.00
2023-01-26T07:16:10.455Z,1747.00
2023-01-26T07:17:10.338Z,1749.00
2023-01-26T07:18:10.317Z,1750.00
2023-01-26T07:19:10.319Z,1753.00
2023-01-26T07:20:10.715Z,1753.00
2023-01-26T07:21:10.222Z,1754.00
2023-01-26T07:22:10.207Z,1770.00
2023-01-26T07:23:10.397Z,1779.00
2023-01-26T07:24:10.145Z,1786.00
2023-01-26T07:25:10.119Z,1784.00
2023-01-26T07:26:10.047Z,1796.00
2023-01-26T07:27:10.062Z,1792.00
2023-01-26T07:28:10.018Z,1784.00
2023-01-26T07:29:10.040Z,1805.00
2023-01-26T07:30:11.150Z,1782.00
2023-01-26T07:31:10.027Z,1758.00
2023-01-26T07:32:09.850Z,1758.00
2023-01-26T07:33:09.821Z,1754.00
2023-01-26T07:34:09.788Z,1773.00
2023-01-26T07:35:09.797Z,1784.00
2023-01-26T07:36:09.711Z,1788.00
2023-01-26T07:37:20.859Z,1793.00
2023-01-26T07:38:09.638Z,1796.00
2023-01-26T07:39:10.904Z,1801.00
2023-01-26T07:40:10.169Z,1803.00
2023-01-26T07:41:09.544Z,1816.00
2023-01-26T07:42:09.509Z,1885.00
2023-01-26T07:43:09.465Z,2011.00
2023-01-26T07:44:09.461Z,2018.00
2023-01-26T07:45:09.421Z,2022.00
2023-01-26T07:46:09.397Z,2064.00
2023-01-26T07:47:09.347Z,2152.00
2023-01-26T07:48:09.298Z,2289.00
2023-01-26T07:49:09.287Z,2448.00
2023-01-26T07:50:09.543Z,2355.00
2023-01-26T07:51:09.230Z,2303.00
2023-01-26T07:52:09.213Z,1892.00
2023-01-26T07:53:09.152Z,1619.00
2023-01-26T07:54:09.113Z,1604.00
2023-01-26T07:55:09.093Z,1609.00
2023-01-26T07:56:09.074Z,1646.00
2023-01-26T07:57:09.065Z,1704.00
2023-01-26T07:58:09.005Z,1766.00
2023-01-26T07:59:08.988Z,1828.00
2023-01-26T08:00:09.272Z,1611.00
2023-01-26T08:01:08.941Z,1640.00
2023-01-26T08:02:08.886Z,1689.00
2023-01-26T08:03:08.928Z,1755.00
2023-01-26T08:04:08.845Z,1846.00
2023-01-26T08:05:08.807Z,1843.00
2023-01-26T08:06:11.779Z,1868.00
2023-01-26T08:07:08.746Z,1889.00
2023-01-26T08:08:08.717Z,1893.00
2023-01-26T08:09:08.712Z,1915.00
2023-01-26T08:10:08.716Z,1928.00
2023-01-26T08:11:08.632Z,1967.00
2023-01-26T08:12:08.627Z,1978.00
2023-01-26T08:13:08.560Z,1945.00
2023-01-26T08:14:08.540Z,1918.00
2023-01-26T08:15:08.500Z,1906.00
2023-01-26T08:16:08.491Z,1896.00
2023-01-26T08:17:08.437Z,1898.00
2023-01-26T08:18:08.391Z,1900.00
2023-01-26T08:19:08.358Z,1936.00
2023-01-26T08:20:08.409Z,1997.00
2023-01-26T08:21:08.325Z,2091.00
2023-01-26T08:22:08.255Z,2109.00
2023-01-26T08:23:08.235Z,2099.00
2023-01-26T08:24:08.251Z,2104.00
2023-01-26T08:25:08.165Z,2111.00
2023-01-26T08:26:08.167Z,2129.00
2023-01-26T08:27:08.100Z,2130.00
2023-01-26T08:28:08.047Z,2130.00
2023-01-26T08:29:08.255Z,2108.00
2023-01-26T08:30:08.025Z,2097.00
2023-01-26T08:31:07.952Z,2054.00
2023-01-26T08:32:07.915Z,2007.00
2023-01-26T08:33:07.852Z,1970.00
2023-01-26T08:34:07.809Z,1980.00
2023-01-26T08:35:07.785Z,1967.00
2023-01-26T08:36:07.755Z,1967.00
2023-01-26T08:37:07.718Z,1960.00
2023-01-26T08:38:07.679Z,1928.00
2023-01-26T08:39:07.647Z,1944.00
2023-01-26T08:40:07.610Z,1918.00
2023-01-26T08:41:07.577Z,1919.00
2023-01-26T08:42:07.561Z,1929.00
2023-01-26T08:43:07.521Z,1982.00
2023-01-26T08:44:07.469Z,1937.00
2023-01-26T08:45:07.420Z,1920.00
2023-01-26T08:46:07.407Z,1922.00
2023-01-26T08:47:07.342Z,1939.00
2023-01-26T08:48:07.305Z,1948.00
2023-01-26T08:49:07.264Z,1962.00
2023-01-26T08:50:07.237Z,2047.00
2023-01-26T08:51:07.189Z,2057.00
2023-01-26T08:52:07.147Z,2054.00
2023-01-26T08:53:07.101Z,2010.00
2023-01-26T08:54:07.053Z,1961.00
2023-01-26T08:55:07.022Z,1963.00
2023-01-26T08:56:06.980Z,1889.00
2023-01-26T08:57:06.950Z,1873.00
2023-01-26T08:58:06.897Z,1899.00
2023-01-26T08:59:06.857Z,1986.00
2023-01-26T09:00:06.803Z,1951.00
2023-01-26T09:01:06.799Z,1905.00
2023-01-26T09:02:06.813Z,1872.00
2023-01-26T09:03:06.793Z,1776.00
2023-01-26T09:04:06.621Z,1799.00
2023-01-26T09:05:06.593Z,1778.00
2023-01-26T09:06:06.551Z,1777.00
2023-01-26T09:07:06.517Z,1753.00
2023-01-26T09:08:06.470Z,1740.00
2023-01-26T09:09:06.430Z,1705.00
2023-01-26T09:10:06.380Z,1676.00
2023-01-26T09:11:06.362Z,1676.00
2023-01-26T09:12:06.301Z,1684.00
2023-01-26T09:13:06.261Z,1696.00
2023-01-26T09:14:06.217Z,1630.00
2023-01-26T09:15:06.172Z,1635.00
2023-01-26T09:16:06.139Z,1619.00
2023-01-26T09:17:06.085Z,1644.00
2023-01-26T09:18:06.050Z,1623.00
2023-01-26T09:19:06.015Z,1642.00
2023-01-26T09:20:05.962Z,1627.00
2023-01-26T09:21:05.925Z,1631.00
2023-01-26T09:22:05.876Z,1615.00
2023-01-26T09:23:05.828Z,1596.00
2023-01-26T09:24:05.822Z,1600.00
2023-01-26T09:25:05.758Z,1578.00
2023-01-26T09:26:05.688Z,1582.00
2023-01-26T09:27:05.655Z,1565.00
2023-01-26T09:28:05.771Z,1567.00
2023-01-26T09:29:05.547Z,1544.00
2023-01-26T09:30:05.565Z,1549.00
2023-01-26T09:31:05.568Z,1550.00
2023-01-26T09:32:05.406Z,1550.00
2023-01-26T09:33:05.373Z,1551.00
2023-01-26T09:34:05.335Z,1554.00
2023-01-26T09:35:05.275Z,1549.00
2023-01-26T09:36:05.252Z,1554.00
2023-01-26T09:37:05.192Z,1546.00
2023-01-26T09:38:05.160Z,1557.00
2023-01-26T09:39:05.112Z,1539.00
2023-01-26T09:40:05.062Z,1516.00
2023-01-26T09:41:05.021Z,1505.00
2023-01-26T09:42:04.982Z,1516.00
2023-01-26T09:43:04.936Z,1505.00
2023-01-26T09:44:04.901Z,1498.00
2023-01-26T09:45:04.856Z,1506.00
2023-01-26T09:46:04.871Z,1489.00
2023-01-26T09:47:04.790Z,1477.00
2023-01-26T09:48:04.729Z,1481.00
2023-01-26T09:49:04.709Z,1480.00
2023-01-26T09:50:04.674Z,1491.00
2023-01-26T09:51:04.599Z,1489.00
2023-01-26T09:52:04.568Z,1468.00
2023-01-26T09:53:04.528Z,1475.00
2023-01-26T09:54:04.496Z,1512.00
2023-01-26T09:55:04.440Z,1506.00
2023-01-26T09:56:04.379Z,1518.00
2023-01-26T09:57:04.344Z,1511.00
2023-01-26T09:58:04.288Z,1518.00
2023-01-26T09:59:04.247Z,1531.00
2023-01-26T10:00:04.218Z,1532.00
2023-01-26T10:01:04.251Z,1528.00
2023-01-26T10:02:04.131Z,1526.00
2023-01-26T10:03:04.130Z,1528.00
2023-01-26T10:04:04.042Z,1544.00
2023-01-26T10:05:03.985Z,1539.00
2023-01-26T10:06:03.949Z,1529.00
2023-01-26T10:07:03.917Z,1540.00
2023-01-26T10:08:03.846Z,1532.00
2023-01-26T10:09:03.835Z,1524.00
2023-01-26T10:10:03.771Z,1527.00
2023-01-26T10:11:03.715Z,1515.00
2023-01-26T10:12:03.681Z,1527.00
2023-01-26T10:13:03.622Z,1527.00
2023-01-26T10:14:03.567Z,1527.00
2023-01-26T10:15:03.522Z,1520.00
2023-01-26T10:16:03.516Z,1522.00
2023-01-26T10:17:03.441Z,1523.00
2023-01-26T10:18:03.431Z,1525.00
2023-01-26T10:19:03.346Z,1522.00
2023-01-26T10:20:03.305Z,1531.00
2023-01-26T10:21:03.257Z,1537.00
2023-01-26T10:22:03.210Z,1538.00
2023-01-26T10:23:03.187Z,1527.00
2023-01-26T10:24:03.264Z,1508.00
2023-01-26T10:25:03.077Z,1515.00
2023-01-26T10:26:03.031Z,1497.00
2023-01-26T10:27:02.993Z,1494.00
2023-01-26T10:28:02.952Z,1504.00
2023-01-26T10:29:02.951Z,1502.00
2023-01-26T10:30:02.865Z,1506.00
2023-01-26T10:31:02.897Z,1512.00
2023-01-26T10:32:02.771Z,1503.00
2023-01-26T10:33:02.722Z,1512.00
2023-01-26T10:34:02.679Z,1505.00
2023-01-26T10:35:02.648Z,1494.00
2023-01-26T10:36:02.587Z,1492.00
2023-01-26T10:37:02.551Z,1485.00
2023-01-26T10:38:02.514Z,1491.00
2023-01-26T10:39:02.465Z,1491.00
2023-01-26T10:40:02.420Z,1480.00
2023-01-26T10:41:02.368Z,1487.00
2023-01-26T10:42:02.322Z,1490.00
2023-01-26T10:43:02.302Z,1498.00
2023-01-26T10:44:02.239Z,1490.00
2023-01-26T10:45:02.223Z,1498.00
2023-01-26T10:46:02.212Z,1489.00
2023-01-26T10:47:02.141Z,1480.00
2023-01-26T10:48:02.093Z,1472.00
2023-01-26T10:49:02.034Z,1483.00
2023-01-26T10:50:01.968Z,1483.00
2023-01-26T10:51:02.476Z,1475.00
2023-01-26T10:52:01.862Z,1459.00
2023-01-26T10:53:01.821Z,1481.00
2023-01-26T10:54:01.769Z,1482.00
2023-01-26T10:55:01.734Z,1485.00
2023-01-26T10:56:01.672Z,1485.00
2023-01-26T10:57:01.622Z,1489.00
2023-01-26T10:58:01.612Z,1504.00
2023-01-26T10:59:01.553Z,1503.00
2023-01-26T11:00:01.536Z,1502.00
2023-01-26T11:01:01.438Z,1507.00
2023-01-26T11:02:01.396Z,1504.00
2023-01-26T11:03:01.378Z,1504.00
2023-01-26T11:04:01.337Z,1515.00
2023-01-26T11:05:01.218Z,1515.00
2023-01-26T11:06:01.178Z,1516.00
2023-01-26T11:07:01.161Z,1517.00
2023-01-26T11:08:01.072Z,1518.00
2023-01-26T11:09:01.046Z,1522.00
2023-01-26T11:10:00.964Z,1530.00
2023-01-26T11:11:00.925Z,1507.00
2023-01-26T11:12:00.854Z,1518.00
2023-01-26T11:13:00.802Z,1525.00
2023-01-26T11:14:00.766Z,1526.00
2023-01-26T11:15:00.692Z,1524.00
2023-01-26T11:16:00.779Z,1513.00
2023-01-26T11:17:00.557Z,1523.00
2023-01-26T11:18:00.491Z,1514.00
2023-01-26T11:19:00.491Z,1518.00
2023-01-26T11:20:00.383Z,1521.00
2023-01-26T11:21:00.315Z,1517.00
2023-01-26T11:22:00.254Z,1514.00
2023-01-26T11:23:00.195Z,1520.00
2023-01-26T11:24:00.215Z,1522.00
2023-01-26T11:25:00.056Z,1523.00
2023-01-26T11:25:59.989Z,1517.00
2023-01-26T11:26:59.914Z,1521.00
2023-01-26T11:27:59.850Z,1526.00
2023-01-26T11:28:59.784Z,1531.00
2023-01-26T11:29:59.714Z,1529.00
2023-01-26T11:30:59.713Z,1524.00
2023-01-26T11:31:59.580Z,1535.00
2023-01-26T11:32:59.516Z,1529.00
2023-01-26T11:33:59.452Z,1535.00
2023-01-26T11:34:59.380Z,1537.00
2023-01-26T11:35:59.297Z,1530.00
2023-01-26T11:36:59.232Z,1534.00
2023-01-26T11:37:59.159Z,1540.00
2023-01-26T11:38:59.087Z,1541.00
2023-01-26T11:39:59.046Z,1542.00
2023-01-26T11:40:58.975Z,1533.00
2023-01-26T11:41:58.886Z,1535.00
2023-01-26T11:42:58.819Z,1525.00
2023-01-26T11:43:58.749Z,1523.00
2023-01-26T11:44:58.685Z,1514.00
2023-01-26T11:45:58.662Z,1516.00
2023-01-26T11:46:58.523Z,1513.00
2023-01-26T11:47:58.455Z,1520.00
2023-01-26T11:48:58.395Z,1486.00
2023-01-26T11:49:58.329Z,1352.00
2023-01-26T11:50:58.258Z,1321.00
2023-01-26T11:51:58.222Z,1321.00
2023-01-26T11:52:58.154Z,1224.00
2023-01-26T11:53:58.100Z,1174.00
2023-01-26T11:54:58.071Z,1154.00
2023-01-26T11:55:58.007Z,1113.00
2023-01-26T11:56:57.932Z,1063.00
2023-01-26T11:57:57.895Z,1001.00
2023-01-26T11:58:57.887Z,984.00
2023-01-26T11:59:57.813Z,961.00
2023-01-26T12:00:57.733Z,929.00
2023-01-26T12:01:57.771Z,913.00
2023-01-26T12:02:57.710Z,881.00
2023-01-26T12:03:57.583Z,881.00
2023-01-26T12:04:57.539Z,836.00
2023-01-26T12:05:57.502Z,793.00
2023-01-26T12:06:57.428Z,795.00
2023-01-26T12:07:57.398Z,766.00
2023-01-26T12:08:57.358Z,744.00
2023-01-26T12:09:57.292Z,722.00
2023-01-26T12:10:57.242Z,706.00
2023-01-26T12:11:57.192Z,665.00